sensor_id;sensor_type;location;lat;lon;timestamp;P1;durP1;ratioP1;P2;durP2;ratioP2
48853;SDS011;34673;52.808;17.856;2022-07-04T00:01:02;3.78;;;2.95;;
48853;SDS011;34673;52.808;17.856;2022-07-04T00:03:29;3.55;;;2.63;;
48853;SDS011;34673;52.808;17.856;2022-07-04T00:05:57;4.70;;;3.30;;
48853;SDS011;34673;52.808;17.856;2022-07-04T00:08:24;4.55;;;3.00;;
48853;SDS011;34673;52.808;17.856;2022-07-04T00:10:51;4.22;;;3.20;;
48853;SDS011;34673;52.808;17.856;2022-07-04T00:13:18;4.38;;;3.10;;
48853;SDS011;34673;52.808;17.856;2022-07-04T00:15:45;5.10;;;3.13;;
48853;SDS011;34673;52.808;17.856;2022-07-04T00:18:13;4.55;;;3.22;;
48853;SDS011;34673;52.808;17.856;2022-07-04T00:20:40;6.13;;;3.20;;
48853;SDS011;34673;52.808;17.856;2022-07-04T00:23:07;3.63;;;3.00;;
48853;SDS011;34673;52.808;17.856;2022-07-04T00:25:34;4.18;;;3.28;;
48853;SDS011;34673;52.808;17.856;2022-07-04T00:28:01;4.18;;;2.83;;
48853;SDS011;34673;52.808;17.856;2022-07-04T00:30:28;5.13;;;2.88;;
48853;SDS011;34673;52.808;17.856;2022-07-04T00:32:56;5.07;;;2.80;;
48853;SDS011;34673;52.808;17.856;2022-07-04T00:35:23;4.35;;;2.88;;
48853;SDS011;34673;52.808;17.856;2022-07-04T00:37:50;4.63;;;2.53;;
48853;SDS011;34673;52.808;17.856;2022-07-04T00:40:17;4.47;;;3.22;;
48853;SDS011;34673;52.808;17.856;2022-07-04T00:42:44;4.32;;;3.30;;
48853;SDS011;34673;52.808;17.856;2022-07-04T00:45:11;7.20;;;4.18;;
48853;SDS011;34673;52.808;17.856;2022-07-04T00:47:38;5.47;;;2.65;;
48853;SDS011;34673;52.808;17.856;2022-07-04T00:50:06;3.90;;;2.60;;
48853;SDS011;34673;52.808;17.856;2022-07-04T00:52:33;4.13;;;2.78;;
48853;SDS011;34673;52.808;17.856;2022-07-04T00:55:00;5.35;;;2.72;;
48853;SDS011;34673;52.808;17.856;2022-07-04T00:57:28;5.03;;;2.97;;
48853;SDS011;34673;52.808;17.856;2022-07-04T00:59:55;4.63;;;2.50;;
48853;SDS011;34673;52.808;17.856;2022-07-04T01:02:23;5.03;;;2.60;;
48853;SDS011;34673;52.808;17.856;2022-07-04T01:04:50;3.83;;;2.83;;
48853;SDS011;34673;52.808;17.856;2022-07-04T01:07:18;8.07;;;2.95;;
48853;SDS011;34673;52.808;17.856;2022-07-04T01:09:45;3.88;;;2.45;;
48853;SDS011;34673;52.808;17.856;2022-07-04T01:12:35;3.33;;;2.63;;
48853;SDS011;34673;52.808;17.856;2022-07-04T01:15:01;4.55;;;2.72;;
48853;SDS011;34673;52.808;17.856;2022-07-04T01:17:29;4.85;;;2.70;;
48853;SDS011;34673;52.808;17.856;2022-07-04T01:19:56;5.13;;;3.00;;
48853;SDS011;34673;52.808;17.856;2022-07-04T01:22:23;5.78;;;2.67;;
48853;SDS011;34673;52.808;17.856;2022-07-04T01:24:50;4.63;;;2.70;;
48853;SDS011;34673;52.808;17.856;2022-07-04T01:27:17;4.82;;;2.45;;
48853;SDS011;34673;52.808;17.856;2022-07-04T01:29:45;5.90;;;2.88;;
48853;SDS011;34673;52.808;17.856;2022-07-04T01:32:12;5.15;;;2.72;;
48853;SDS011;34673;52.808;17.856;2022-07-04T01:34:39;4.47;;;2.63;;
48853;SDS011;34673;52.808;17.856;2022-07-04T01:37:09;3.85;;;2.47;;
48853;SDS011;34673;52.808;17.856;2022-07-04T01:39:37;3.47;;;2.50;;
48853;SDS011;34673;52.808;17.856;2022-07-04T01:42:04;5.32;;;2.45;;
48853;SDS011;34673;52.808;17.856;2022-07-04T01:44:32;2.85;;;2.33;;
48853;SDS011;34673;52.808;17.856;2022-07-04T01:47:00;4.50;;;2.30;;
48853;SDS011;34673;52.808;17.856;2022-07-04T01:49:27;3.47;;;2.25;;
48853;SDS011;34673;52.808;17.856;2022-07-04T01:51:55;4.00;;;2.55;;
48853;SDS011;34673;52.808;17.856;2022-07-04T01:54:22;4.65;;;2.80;;
48853;SDS011;34673;52.808;17.856;2022-07-04T01:56:51;3.45;;;2.15;;
48853;SDS011;34673;52.808;17.856;2022-07-04T01:59:18;3.22;;;2.40;;
48853;SDS011;34673;52.808;17.856;2022-07-04T02:01:46;3.42;;;2.17;;
48853;SDS011;34673;52.808;17.856;2022-07-04T02:04:13;3.50;;;2.50;;
48853;SDS011;34673;52.808;17.856;2022-07-04T02:06:40;4.80;;;2.30;;
48853;SDS011;34673;52.808;17.856;2022-07-04T02:09:07;3.88;;;2.40;;
48853;SDS011;34673;52.808;17.856;2022-07-04T02:11:44;3.78;;;2.25;;
48853;SDS011;34673;52.808;17.856;2022-07-04T02:14:31;3.40;;;2.15;;
48853;SDS011;34673;52.808;17.856;2022-07-04T02:16:59;3.55;;;2.28;;
48853;SDS011;34673;52.808;17.856;2022-07-04T02:19:27;3.83;;;2.00;;
48853;SDS011;34673;52.808;17.856;2022-07-04T02:21:55;4.22;;;2.05;;
48853;SDS011;34673;52.808;17.856;2022-07-04T02:24:22;4.38;;;2.05;;
48853;SDS011;34673;52.808;17.856;2022-07-04T02:26:49;3.72;;;1.95;;
48853;SDS011;34673;52.808;17.856;2022-07-04T02:29:16;3.72;;;1.75;;
48853;SDS011;34673;52.808;17.856;2022-07-04T02:31:44;3.30;;;1.92;;
48853;SDS011;34673;52.808;17.856;2022-07-04T02:34:11;3.55;;;1.83;;
48853;SDS011;34673;52.808;17.856;2022-07-04T02:36:38;4.50;;;2.13;;
48853;SDS011;34673;52.808;17.856;2022-07-04T02:39:06;3.58;;;1.73;;
48853;SDS011;34673;52.808;17.856;2022-07-04T02:41:33;4.30;;;1.85;;
48853;SDS011;34673;52.808;17.856;2022-07-04T02:44:00;3.38;;;1.90;;
48853;SDS011;34673;52.808;17.856;2022-07-04T02:46:28;3.20;;;2.03;;
48853;SDS011;34673;52.808;17.856;2022-07-04T02:48:55;3.25;;;1.75;;
48853;SDS011;34673;52.808;17.856;2022-07-04T02:51:22;3.28;;;1.40;;
48853;SDS011;34673;52.808;17.856;2022-07-04T02:53:50;2.40;;;1.50;;
48853;SDS011;34673;52.808;17.856;2022-07-04T02:56:17;3.15;;;1.63;;
48853;SDS011;34673;52.808;17.856;2022-07-04T02:58:44;6.40;;;2.55;;
48853;SDS011;34673;52.808;17.856;2022-07-04T03:01:11;2.33;;;1.30;;
48853;SDS011;34673;52.808;17.856;2022-07-04T03:03:39;3.60;;;1.65;;
48853;SDS011;34673;52.808;17.856;2022-07-04T03:06:07;3.10;;;1.83;;
48853;SDS011;34673;52.808;17.856;2022-07-04T03:08:35;3.50;;;2.10;;
48853;SDS011;34673;52.808;17.856;2022-07-04T03:11:03;3.22;;;1.70;;
48853;SDS011;34673;52.808;17.856;2022-07-04T03:13:30;3.55;;;1.58;;
48853;SDS011;34673;52.808;17.856;2022-07-04T03:15:58;3.92;;;2.00;;
48853;SDS011;34673;52.808;17.856;2022-07-04T03:18:25;2.92;;;1.70;;
48853;SDS011;34673;52.808;17.856;2022-07-04T03:20:52;3.03;;;1.65;;
48853;SDS011;34673;52.808;17.856;2022-07-04T03:23:19;3.85;;;1.63;;
48853;SDS011;34673;52.808;17.856;2022-07-04T03:25:46;2.72;;;1.83;;
48853;SDS011;34673;52.808;17.856;2022-07-04T03:28:13;4.07;;;1.80;;
48853;SDS011;34673;52.808;17.856;2022-07-04T03:30:41;6.05;;;2.08;;
48853;SDS011;34673;52.808;17.856;2022-07-04T03:33:09;5.00;;;1.80;;
48853;SDS011;34673;52.808;17.856;2022-07-04T03:35:36;2.53;;;1.55;;
48853;SDS011;34673;52.808;17.856;2022-07-04T03:38:03;3.03;;;1.90;;
48853;SDS011;34673;52.808;17.856;2022-07-04T03:40:30;3.25;;;1.70;;
48853;SDS011;34673;52.808;17.856;2022-07-04T03:42:58;3.28;;;1.80;;
48853;SDS011;34673;52.808;17.856;2022-07-04T03:45:26;3.03;;;1.65;;
48853;SDS011;34673;52.808;17.856;2022-07-04T03:47:53;2.13;;;1.60;;
48853;SDS011;34673;52.808;17.856;2022-07-04T03:50:20;3.42;;;2.00;;
48853;SDS011;34673;52.808;17.856;2022-07-04T03:52:47;2.83;;;1.85;;
48853;SDS011;34673;52.808;17.856;2022-07-04T03:55:14;2.83;;;1.70;;
48853;SDS011;34673;52.808;17.856;2022-07-04T03:57:42;3.63;;;2.00;;
48853;SDS011;34673;52.808;17.856;2022-07-04T04:00:09;3.20;;;2.00;;
48853;SDS011;34673;52.808;17.856;2022-07-04T04:02:40;4.25;;;1.88;;
48853;SDS011;34673;52.808;17.856;2022-07-04T04:05:13;3.35;;;1.70;;
48853;SDS011;34673;52.808;17.856;2022-07-04T04:07:58;4.45;;;1.80;;
48853;SDS011;34673;52.808;17.856;2022-07-04T04:10:27;3.22;;;2.13;;
48853;SDS011;34673;52.808;17.856;2022-07-04T04:12:56;2.60;;;1.80;;
48853;SDS011;34673;52.808;17.856;2022-07-04T04:15:24;6.20;;;2.50;;
48853;SDS011;34673;52.808;17.856;2022-07-04T04:17:51;3.67;;;2.05;;
48853;SDS011;34673;52.808;17.856;2022-07-04T04:20:18;6.40;;;2.17;;
48853;SDS011;34673;52.808;17.856;2022-07-04T04:22:45;4.85;;;2.00;;
48853;SDS011;34673;52.808;17.856;2022-07-04T04:25:12;4.07;;;2.28;;
48853;SDS011;34673;52.808;17.856;2022-07-04T04:27:39;4.30;;;1.73;;
48853;SDS011;34673;52.808;17.856;2022-07-04T04:30:06;3.47;;;2.03;;
48853;SDS011;34673;52.808;17.856;2022-07-04T04:32:34;3.72;;;1.90;;
48853;SDS011;34673;52.808;17.856;2022-07-04T04:35:01;3.42;;;2.00;;
48853;SDS011;34673;52.808;17.856;2022-07-04T04:37:28;5.10;;;2.10;;
48853;SDS011;34673;52.808;17.856;2022-07-04T04:39:55;3.95;;;2.17;;
48853;SDS011;34673;52.808;17.856;2022-07-04T04:42:23;4.40;;;2.38;;
48853;SDS011;34673;52.808;17.856;2022-07-04T04:44:50;3.92;;;2.40;;
48853;SDS011;34673;52.808;17.856;2022-07-04T04:47:17;4.05;;;1.98;;
48853;SDS011;34673;52.808;17.856;2022-07-04T04:49:44;4.78;;;2.42;;
48853;SDS011;34673;52.808;17.856;2022-07-04T04:52:11;3.65;;;2.30;;
48853;SDS011;34673;52.808;17.856;2022-07-04T04:54:38;4.18;;;2.28;;
48853;SDS011;34673;52.808;17.856;2022-07-04T04:57:06;7.22;;;2.60;;
48853;SDS011;34673;52.808;17.856;2022-07-04T04:59:33;7.25;;;3.03;;
48853;SDS011;34673;52.808;17.856;2022-07-04T05:02:02;6.93;;;2.60;;
48853;SDS011;34673;52.808;17.856;2022-07-04T05:04:29;4.22;;;2.33;;
48853;SDS011;34673;52.808;17.856;2022-07-04T05:06:57;5.35;;;2.53;;
48853;SDS011;34673;52.808;17.856;2022-07-04T05:09:23;3.22;;;2.17;;
48853;SDS011;34673;52.808;17.856;2022-07-04T05:11:51;5.88;;;3.05;;
48853;SDS011;34673;52.808;17.856;2022-07-04T05:14:18;3.63;;;2.53;;
48853;SDS011;34673;52.808;17.856;2022-07-04T05:16:45;4.70;;;2.60;;
48853;SDS011;34673;52.808;17.856;2022-07-04T05:19:12;4.38;;;2.70;;
48853;SDS011;34673;52.808;17.856;2022-07-04T05:21:40;5.13;;;2.50;;
48853;SDS011;34673;52.808;17.856;2022-07-04T05:24:07;4.10;;;2.47;;
48853;SDS011;34673;52.808;17.856;2022-07-04T05:26:34;3.55;;;2.60;;
48853;SDS011;34673;52.808;17.856;2022-07-04T05:29:01;4.65;;;2.47;;
48853;SDS011;34673;52.808;17.856;2022-07-04T05:31:28;3.17;;;2.20;;
48853;SDS011;34673;52.808;17.856;2022-07-04T05:33:55;4.90;;;2.63;;
48853;SDS011;34673;52.808;17.856;2022-07-04T05:36:23;4.40;;;2.60;;
48853;SDS011;34673;52.808;17.856;2022-07-04T05:38:55;4.22;;;2.38;;
48853;SDS011;34673;52.808;17.856;2022-07-04T05:41:23;4.05;;;2.50;;
48853;SDS011;34673;52.808;17.856;2022-07-04T05:43:50;5.03;;;2.65;;
48853;SDS011;34673;52.808;17.856;2022-07-04T05:46:23;5.00;;;2.45;;
48853;SDS011;34673;52.808;17.856;2022-07-04T05:48:51;6.30;;;2.60;;
48853;SDS011;34673;52.808;17.856;2022-07-04T05:51:18;3.78;;;2.33;;
48853;SDS011;34673;52.808;17.856;2022-07-04T05:53:45;5.10;;;2.20;;
48853;SDS011;34673;52.808;17.856;2022-07-04T05:56:12;3.10;;;2.10;;
48853;SDS011;34673;52.808;17.856;2022-07-04T05:58:39;7.25;;;2.40;;
48853;SDS011;34673;52.808;17.856;2022-07-04T06:01:07;3.70;;;2.25;;
48853;SDS011;34673;52.808;17.856;2022-07-04T06:03:35;4.70;;;2.33;;
48853;SDS011;34673;52.808;17.856;2022-07-04T06:06:05;3.92;;;2.28;;
48853;SDS011;34673;52.808;17.856;2022-07-04T06:08:32;3.22;;;2.20;;
48853;SDS011;34673;52.808;17.856;2022-07-04T06:10:59;6.20;;;2.90;;
48853;SDS011;34673;52.808;17.856;2022-07-04T06:13:27;4.75;;;2.30;;
48853;SDS011;34673;52.808;17.856;2022-07-04T06:15:55;3.65;;;2.35;;
48853;SDS011;34673;52.808;17.856;2022-07-04T06:18:22;3.60;;;2.28;;
48853;SDS011;34673;52.808;17.856;2022-07-04T06:20:50;3.80;;;2.30;;
48853;SDS011;34673;52.808;17.856;2022-07-04T06:23:17;6.43;;;2.38;;
48853;SDS011;34673;52.808;17.856;2022-07-04T06:25:45;5.45;;;2.40;;
48853;SDS011;34673;52.808;17.856;2022-07-04T06:28:12;2.90;;;1.90;;
48853;SDS011;34673;52.808;17.856;2022-07-04T06:31:00;3.35;;;2.08;;
48853;SDS011;34673;52.808;17.856;2022-07-04T06:33:27;5.57;;;2.33;;
48853;SDS011;34673;52.808;17.856;2022-07-04T06:35:54;4.05;;;2.22;;
48853;SDS011;34673;52.808;17.856;2022-07-04T06:38:22;5.80;;;2.83;;
48853;SDS011;34673;52.808;17.856;2022-07-04T06:40:56;4.25;;;2.20;;
48853;SDS011;34673;52.808;17.856;2022-07-04T06:43:24;4.20;;;2.00;;
48853;SDS011;34673;52.808;17.856;2022-07-04T06:45:52;4.40;;;2.30;;
48853;SDS011;34673;52.808;17.856;2022-07-04T06:48:19;6.13;;;2.33;;
48853;SDS011;34673;52.808;17.856;2022-07-04T06:50:47;3.55;;;2.13;;
48853;SDS011;34673;52.808;17.856;2022-07-04T06:53:14;4.40;;;2.20;;
48853;SDS011;34673;52.808;17.856;2022-07-04T06:55:42;3.47;;;2.17;;
48853;SDS011;34673;52.808;17.856;2022-07-04T06:58:09;5.30;;;2.30;;
48853;SDS011;34673;52.808;17.856;2022-07-04T07:00:39;4.20;;;2.50;;
48853;SDS011;34673;52.808;17.856;2022-07-04T07:03:08;4.38;;;2.00;;
48853;SDS011;34673;52.808;17.856;2022-07-04T07:05:35;6.93;;;2.20;;
48853;SDS011;34673;52.808;17.856;2022-07-04T07:08:25;3.90;;;1.95;;
48853;SDS011;34673;52.808;17.856;2022-07-04T07:10:53;4.53;;;2.25;;
48853;SDS011;34673;52.808;17.856;2022-07-04T07:13:21;5.35;;;2.00;;
48853;SDS011;34673;52.808;17.856;2022-07-04T07:15:48;4.45;;;1.90;;
48853;SDS011;34673;52.808;17.856;2022-07-04T07:18:16;3.00;;;2.00;;
48853;SDS011;34673;52.808;17.856;2022-07-04T07:20:43;2.70;;;1.70;;
48853;SDS011;34673;52.808;17.856;2022-07-04T07:23:10;3.90;;;2.15;;
48853;SDS011;34673;52.808;17.856;2022-07-04T07:25:37;3.42;;;2.10;;
48853;SDS011;34673;52.808;17.856;2022-07-04T07:28:04;7.18;;;2.10;;
48853;SDS011;34673;52.808;17.856;2022-07-04T07:30:32;3.63;;;2.08;;
48853;SDS011;34673;52.808;17.856;2022-07-04T07:32:59;6.05;;;2.65;;
48853;SDS011;34673;52.808;17.856;2022-07-04T07:35:26;3.72;;;2.33;;
48853;SDS011;34673;52.808;17.856;2022-07-04T07:37:53;4.28;;;1.80;;
48853;SDS011;34673;52.808;17.856;2022-07-04T07:40:20;3.08;;;2.00;;
48853;SDS011;34673;52.808;17.856;2022-07-04T07:42:48;5.07;;;2.40;;
48853;SDS011;34673;52.808;17.856;2022-07-04T07:45:15;3.63;;;2.17;;
48853;SDS011;34673;52.808;17.856;2022-07-04T07:47:42;4.03;;;2.13;;
48853;SDS011;34673;52.808;17.856;2022-07-04T07:50:09;6.40;;;2.53;;
48853;SDS011;34673;52.808;17.856;2022-07-04T07:52:36;2.85;;;1.70;;
48853;SDS011;34673;52.808;17.856;2022-07-04T07:55:04;3.65;;;1.83;;
48853;SDS011;34673;52.808;17.856;2022-07-04T07:57:31;3.58;;;1.90;;
48853;SDS011;34673;52.808;17.856;2022-07-04T07:59:59;5.07;;;2.10;;
48853;SDS011;34673;52.808;17.856;2022-07-04T08:02:26;3.65;;;2.00;;
48853;SDS011;34673;52.808;17.856;2022-07-04T08:05:12;5.20;;;2.45;;
48853;SDS011;34673;52.808;17.856;2022-07-04T08:07:39;4.15;;;2.10;;
48853;SDS011;34673;52.808;17.856;2022-07-04T08:10:07;5.57;;;2.00;;
48853;SDS011;34673;52.808;17.856;2022-07-04T08:12:35;6.00;;;2.40;;
48853;SDS011;34673;52.808;17.856;2022-07-04T08:15:02;4.88;;;2.13;;
48853;SDS011;34673;52.808;17.856;2022-07-04T08:17:33;6.15;;;2.20;;
48853;SDS011;34673;52.808;17.856;2022-07-04T08:20:04;4.97;;;2.15;;
48853;SDS011;34673;52.808;17.856;2022-07-04T08:22:32;4.85;;;2.42;;
48853;SDS011;34673;52.808;17.856;2022-07-04T08:25:00;7.97;;;2.40;;
48853;SDS011;34673;52.808;17.856;2022-07-04T08:27:27;5.95;;;2.63;;
48853;SDS011;34673;52.808;17.856;2022-07-04T08:29:59;4.18;;;2.33;;
48853;SDS011;34673;52.808;17.856;2022-07-04T08:32:26;4.43;;;2.60;;
48853;SDS011;34673;52.808;17.856;2022-07-04T08:34:54;5.70;;;2.50;;
48853;SDS011;34673;52.808;17.856;2022-07-04T08:37:24;4.38;;;2.55;;
48853;SDS011;34673;52.808;17.856;2022-07-04T08:39:51;3.55;;;2.20;;
48853;SDS011;34673;52.808;17.856;2022-07-04T08:42:19;4.00;;;2.35;;
48853;SDS011;34673;52.808;17.856;2022-07-04T08:44:51;4.32;;;2.20;;
48853;SDS011;34673;52.808;17.856;2022-07-04T08:47:20;4.05;;;2.03;;
48853;SDS011;34673;52.808;17.856;2022-07-04T08:50:03;6.38;;;2.17;;
48853;SDS011;34673;52.808;17.856;2022-07-04T08:52:47;4.03;;;2.45;;
48853;SDS011;34673;52.808;17.856;2022-07-04T08:55:22;5.38;;;2.00;;
48853;SDS011;34673;52.808;17.856;2022-07-04T08:58:08;2.80;;;1.88;;
48853;SDS011;34673;52.808;17.856;2022-07-04T09:00:58;4.55;;;2.03;;
48853;SDS011;34673;52.808;17.856;2022-07-04T09:03:43;3.75;;;1.88;;
48853;SDS011;34673;52.808;17.856;2022-07-04T09:06:12;4.65;;;2.40;;
48853;SDS011;34673;52.808;17.856;2022-07-04T09:08:40;5.53;;;1.70;;
48853;SDS011;34673;52.808;17.856;2022-07-04T09:11:07;4.45;;;2.08;;
48853;SDS011;34673;52.808;17.856;2022-07-04T09:13:35;3.80;;;2.05;;
48853;SDS011;34673;52.808;17.856;2022-07-04T09:16:02;2.78;;;1.60;;
48853;SDS011;34673;52.808;17.856;2022-07-04T09:18:33;2.80;;;1.73;;
48853;SDS011;34673;52.808;17.856;2022-07-04T09:21:06;2.15;;;1.65;;
48853;SDS011;34673;52.808;17.856;2022-07-04T09:23:35;3.05;;;1.83;;
48853;SDS011;34673;52.808;17.856;2022-07-04T09:31:20;3.80;;;1.73;;
48853;SDS011;34673;52.808;17.856;2022-07-04T09:33:57;3.95;;;1.80;;
48853;SDS011;34673;52.808;17.856;2022-07-04T09:36:26;5.45;;;1.90;;
48853;SDS011;34673;52.808;17.856;2022-07-04T09:39:11;2.60;;;1.63;;
48853;SDS011;34673;52.808;17.856;2022-07-04T09:44:18;2.90;;;1.90;;
48853;SDS011;34673;52.808;17.856;2022-07-04T09:46:46;3.55;;;1.95;;
48853;SDS011;34673;52.808;17.856;2022-07-04T09:49:14;2.95;;;2.20;;
48853;SDS011;34673;52.808;17.856;2022-07-04T09:51:42;4.93;;;2.33;;
48853;SDS011;34673;52.808;17.856;2022-07-04T09:59:19;2.40;;;1.83;;
48853;SDS011;34673;52.808;17.856;2022-07-04T10:01:46;2.95;;;1.90;;
48853;SDS011;34673;52.808;17.856;2022-07-04T10:04:14;3.00;;;1.67;;
48853;SDS011;34673;52.808;17.856;2022-07-04T10:06:43;3.83;;;1.92;;
48853;SDS011;34673;52.808;17.856;2022-07-04T10:09:12;5.88;;;2.20;;
48853;SDS011;34673;52.808;17.856;2022-07-04T10:11:42;5.55;;;1.90;;
48853;SDS011;34673;52.808;17.856;2022-07-04T10:14:12;3.45;;;1.88;;
48853;SDS011;34673;52.808;17.856;2022-07-04T10:16:40;3.70;;;1.98;;
48853;SDS011;34673;52.808;17.856;2022-07-04T10:19:08;3.38;;;1.60;;
48853;SDS011;34673;52.808;17.856;2022-07-04T10:21:36;2.20;;;1.67;;
48853;SDS011;34673;52.808;17.856;2022-07-04T10:24:04;3.35;;;1.67;;
48853;SDS011;34673;52.808;17.856;2022-07-04T10:26:31;2.72;;;1.70;;
48853;SDS011;34673;52.808;17.856;2022-07-04T10:28:58;3.28;;;1.52;;
48853;SDS011;34673;52.808;17.856;2022-07-04T10:31:27;3.25;;;1.48;;
48853;SDS011;34673;52.808;17.856;2022-07-04T10:36:24;2.03;;;1.30;;
48853;SDS011;34673;52.808;17.856;2022-07-04T10:39:00;4.47;;;1.40;;
48853;SDS011;34673;52.808;17.856;2022-07-04T10:41:30;2.17;;;1.58;;
48853;SDS011;34673;52.808;17.856;2022-07-04T10:43:59;2.90;;;1.40;;
48853;SDS011;34673;52.808;17.856;2022-07-04T10:46:48;3.92;;;1.45;;
48853;SDS011;34673;52.808;17.856;2022-07-04T10:49:20;4.43;;;1.58;;
48853;SDS011;34673;52.808;17.856;2022-07-04T10:59:42;3.30;;;1.30;;
48853;SDS011;34673;52.808;17.856;2022-07-04T11:10:24;2.67;;;1.33;;
48853;SDS011;34673;52.808;17.856;2022-07-04T11:20:46;3.20;;;1.15;;
48853;SDS011;34673;52.808;17.856;2022-07-04T11:23:15;2.15;;;1.00;;
48853;SDS011;34673;52.808;17.856;2022-07-04T11:25:44;2.53;;;1.20;;
48853;SDS011;34673;52.808;17.856;2022-07-04T11:31:10;2.28;;;1.10;;
48853;SDS011;34673;52.808;17.856;2022-07-04T11:33:38;1.10;;;0.80;;
48853;SDS011;34673;52.808;17.856;2022-07-04T11:38:52;1.10;;;0.70;;
48853;SDS011;34673;52.808;17.856;2022-07-04T11:41:22;1.30;;;1.00;;
48853;SDS011;34673;52.808;17.856;2022-07-04T11:44:20;1.63;;;0.90;;
48853;SDS011;34673;52.808;17.856;2022-07-04T11:47:12;1.88;;;1.10;;
48853;SDS011;34673;52.808;17.856;2022-07-04T11:49:52;1.58;;;1.05;;
48853;SDS011;34673;52.808;17.856;2022-07-04T11:52:42;3.08;;;1.00;;
48853;SDS011;34673;52.808;17.856;2022-07-04T11:55:29;4.75;;;1.10;;
48853;SDS011;34673;52.808;17.856;2022-07-04T11:57:57;2.50;;;0.95;;
48853;SDS011;34673;52.808;17.856;2022-07-04T12:00:25;1.60;;;1.02;;
48853;SDS011;34673;52.808;17.856;2022-07-04T12:02:57;2.88;;;0.80;;
48853;SDS011;34673;52.808;17.856;2022-07-04T12:05:26;2.38;;;0.93;;
48853;SDS011;34673;52.808;17.856;2022-07-04T12:07:54;2.35;;;1.27;;
48853;SDS011;34673;52.808;17.856;2022-07-04T12:10:41;2.55;;;1.20;;
48853;SDS011;34673;52.808;17.856;2022-07-04T12:13:13;1.60;;;1.23;;
48853;SDS011;34673;52.808;17.856;2022-07-04T12:15:43;1.58;;;1.25;;
48853;SDS011;34673;52.808;17.856;2022-07-04T12:18:22;5.07;;;1.27;;
48853;SDS011;34673;52.808;17.856;2022-07-04T12:21:02;2.97;;;1.10;;
48853;SDS011;34673;52.808;17.856;2022-07-04T12:23:39;1.40;;;1.08;;
48853;SDS011;34673;52.808;17.856;2022-07-04T12:26:27;3.75;;;1.35;;
48853;SDS011;34673;52.808;17.856;2022-07-04T12:28:55;2.83;;;1.10;;
48853;SDS011;34673;52.808;17.856;2022-07-04T12:31:39;3.22;;;1.20;;
48853;SDS011;34673;52.808;17.856;2022-07-04T12:34:14;1.75;;;1.10;;
48853;SDS011;34673;52.808;17.856;2022-07-04T12:36:52;1.85;;;1.00;;
48853;SDS011;34673;52.808;17.856;2022-07-04T12:39:27;2.25;;;1.10;;
48853;SDS011;34673;52.808;17.856;2022-07-04T12:44:31;2.50;;;1.00;;
48853;SDS011;34673;52.808;17.856;2022-07-04T12:46:59;1.23;;;1.00;;
48853;SDS011;34673;52.808;17.856;2022-07-04T12:49:46;1.88;;;0.85;;
48853;SDS011;34673;52.808;17.856;2022-07-04T12:52:15;2.08;;;1.13;;
48853;SDS011;34673;52.808;17.856;2022-07-04T12:54:44;1.95;;;1.10;;
48853;SDS011;34673;52.808;17.856;2022-07-04T12:57:29;1.83;;;1.05;;
48853;SDS011;34673;52.808;17.856;2022-07-04T12:59:56;1.70;;;1.10;;
48853;SDS011;34673;52.808;17.856;2022-07-04T13:02:43;2.83;;;1.30;;
48853;SDS011;34673;52.808;17.856;2022-07-04T13:05:11;1.50;;;1.00;;
48853;SDS011;34673;52.808;17.856;2022-07-04T13:07:38;2.20;;;1.20;;
48853;SDS011;34673;52.808;17.856;2022-07-04T13:10:05;2.20;;;1.52;;
48853;SDS011;34673;52.808;17.856;2022-07-04T13:12:33;3.00;;;1.15;;
48853;SDS011;34673;52.808;17.856;2022-07-04T13:15:00;1.85;;;1.27;;
48853;SDS011;34673;52.808;17.856;2022-07-04T13:17:27;5.30;;;1.60;;
48853;SDS011;34673;52.808;17.856;2022-07-04T13:19:54;3.28;;;1.42;;
48853;SDS011;34673;52.808;17.856;2022-07-04T13:22:22;1.92;;;1.48;;
48853;SDS011;34673;52.808;17.856;2022-07-04T13:24:50;1.63;;;1.10;;
48853;SDS011;34673;52.808;17.856;2022-07-04T13:27:17;1.58;;;1.10;;
48853;SDS011;34673;52.808;17.856;2022-07-04T13:29:45;1.88;;;1.20;;
48853;SDS011;34673;52.808;17.856;2022-07-04T13:32:12;2.28;;;1.13;;
48853;SDS011;34673;52.808;17.856;2022-07-04T13:34:40;1.92;;;0.90;;
48853;SDS011;34673;52.808;17.856;2022-07-04T13:37:07;1.83;;;1.08;;
48853;SDS011;34673;52.808;17.856;2022-07-04T13:39:34;1.40;;;0.98;;
48853;SDS011;34673;52.808;17.856;2022-07-04T13:42:18;2.50;;;1.15;;
48853;SDS011;34673;52.808;17.856;2022-07-04T13:45:05;2.08;;;0.90;;
48853;SDS011;34673;52.808;17.856;2022-07-04T13:47:33;1.67;;;1.02;;
48853;SDS011;34673;52.808;17.856;2022-07-04T13:50:01;3.17;;;1.10;;
48853;SDS011;34673;52.808;17.856;2022-07-04T13:52:28;2.97;;;1.20;;
48853;SDS011;34673;52.808;17.856;2022-07-04T13:54:56;1.60;;;1.10;;
48853;SDS011;34673;52.808;17.856;2022-07-04T13:57:23;2.45;;;1.15;;
48853;SDS011;34673;52.808;17.856;2022-07-04T13:59:50;3.10;;;1.33;;
48853;SDS011;34673;52.808;17.856;2022-07-04T14:02:17;1.63;;;1.05;;
48853;SDS011;34673;52.808;17.856;2022-07-04T14:04:44;1.90;;;1.00;;
48853;SDS011;34673;52.808;17.856;2022-07-04T14:07:11;2.00;;;1.25;;
48853;SDS011;34673;52.808;17.856;2022-07-04T14:09:45;1.63;;;1.20;;
48853;SDS011;34673;52.808;17.856;2022-07-04T14:12:12;2.00;;;1.30;;
48853;SDS011;34673;52.808;17.856;2022-07-04T14:14:40;2.00;;;1.30;;
48853;SDS011;34673;52.808;17.856;2022-07-04T14:17:07;1.67;;;1.20;;
48853;SDS011;34673;52.808;17.856;2022-07-04T14:19:55;2.35;;;1.30;;
48853;SDS011;34673;52.808;17.856;2022-07-04T14:22:25;3.60;;;1.58;;
48853;SDS011;34673;52.808;17.856;2022-07-04T14:24:52;3.33;;;1.40;;
48853;SDS011;34673;52.808;17.856;2022-07-04T14:27:19;2.58;;;1.60;;
48853;SDS011;34673;52.808;17.856;2022-07-04T14:29:47;2.40;;;1.60;;
48853;SDS011;34673;52.808;17.856;2022-07-04T14:32:14;1.60;;;1.20;;
48853;SDS011;34673;52.808;17.856;2022-07-04T14:34:41;3.15;;;1.48;;
48853;SDS011;34673;52.808;17.856;2022-07-04T14:37:09;2.67;;;1.40;;
48853;SDS011;34673;52.808;17.856;2022-07-04T14:39:36;2.13;;;1.25;;
48853;SDS011;34673;52.808;17.856;2022-07-04T14:42:03;4.55;;;1.67;;
48853;SDS011;34673;52.808;17.856;2022-07-04T14:44:31;3.30;;;1.50;;
48853;SDS011;34673;52.808;17.856;2022-07-04T14:47:02;2.80;;;1.15;;
48853;SDS011;34673;52.808;17.856;2022-07-04T14:49:37;2.22;;;1.50;;
48853;SDS011;34673;52.808;17.856;2022-07-04T14:52:04;2.30;;;1.48;;
48853;SDS011;34673;52.808;17.856;2022-07-04T14:54:31;1.92;;;1.33;;
48853;SDS011;34673;52.808;17.856;2022-07-04T14:56:58;2.67;;;1.42;;
48853;SDS011;34673;52.808;17.856;2022-07-04T14:59:25;2.85;;;1.50;;
48853;SDS011;34673;52.808;17.856;2022-07-04T15:01:52;2.10;;;1.40;;
48853;SDS011;34673;52.808;17.856;2022-07-04T15:04:20;2.67;;;1.70;;
48853;SDS011;34673;52.808;17.856;2022-07-04T15:06:47;2.58;;;1.80;;
48853;SDS011;34673;52.808;17.856;2022-07-04T15:09:15;2.10;;;1.40;;
48853;SDS011;34673;52.808;17.856;2022-07-04T15:11:42;2.20;;;1.40;;
48853;SDS011;34673;52.808;17.856;2022-07-04T15:14:11;1.75;;;1.13;;
48853;SDS011;34673;52.808;17.856;2022-07-04T15:16:39;2.35;;;1.45;;
48853;SDS011;34673;52.808;17.856;2022-07-04T15:19:06;3.75;;;1.60;;
48853;SDS011;34673;52.808;17.856;2022-07-04T15:21:34;2.08;;;1.45;;
48853;SDS011;34673;52.808;17.856;2022-07-04T15:24:20;3.30;;;1.70;;
48853;SDS011;34673;52.808;17.856;2022-07-04T15:26:47;3.85;;;1.70;;
48853;SDS011;34673;52.808;17.856;2022-07-04T15:29:18;4.90;;;1.45;;
48853;SDS011;34673;52.808;17.856;2022-07-04T15:31:47;3.42;;;1.70;;
48853;SDS011;34673;52.808;17.856;2022-07-04T15:34:16;2.33;;;1.60;;